Time;durP1;ratioP1;P1;durP2;ratioP2;P2;SDS_P1;SDS_P2;PMS_P1;PMS_P2;Temp;Humidity;BMP_temperature;BMP_pressure;BME280_temperature;BME280_humidity;BME280_pressure;Samples;Min_cycle;Max_cycle;Signal;HPM_P1;HPM_P2
2024/01/07 00:01:31;;;;;;;16.90;11.30;;;;;2.90;101112.00;;;;9827534;29;20236;-80
2024/01/07 00:06:32;;;;;;;15.73;11.23;;;;;2.90;101117.00;;;;9827238;29;20220;-79
2024/01/07 00:11:33;;;;;;;17.60;11.17;;;;;2.90;101117.00;;;;9811224;29;20244;-80
2024/01/07 00:16:35;;;;;;;18.00;11.40;;;;;2.90;101117.00;;;;9840983;29;20285;-79
2024/01/07 00:21:36;;;;;;;17.10;12.50;;;;;2.90;101120.00;;;;9830430;29;20816;-80
2024/01/07 00:26:37;;;;;;;14.97;12.27;;;;;2.90;101124.00;;;;9842568;29;20243;-79
2024/01/07 00:31:38;;;;;;;16.80;11.60;;;;;2.90;101127.00;;;;9851811;29;20232;-81
2024/01/07 00:36:40;;;;;;;16.33;11.93;;;;;2.90;101135.00;;;;9800387;29;20262;-82
2024/01/07 00:41:41;;;;;;;15.33;11.70;;;;;2.90;101128.00;;;;9823077;29;20232;-82
2024/01/07 00:46:42;;;;;;;17.93;11.20;;;;;2.90;101131.00;;;;9821668;29;20220;-82
2024/01/07 00:51:47;;;;;;;17.50;11.20;;;;;2.90;101131.00;;;;9827042;29;20237;-82
2024/01/07 00:56:48;;;;;;;16.47;10.90;;;;;2.90;101134.00;;;;9821936;29;20385;-82
2024/01/07 01:01:50;;;;;;;14.87;11.83;;;;;2.90;101141.00;;;;9835883;29;20813;-83
2024/01/07 01:06:51;;;;;;;18.77;12.37;;;;;2.90;101147.00;;;;9833400;29;20255;-84
2024/01/07 01:11:53;;;;;;;15.67;11.93;;;;;2.90;101152.00;;;;9836394;29;20841;-82
2024/01/07 01:16:54;;;;;;;18.40;12.87;;;;;2.90;101147.00;;;;9820055;29;20327;-81
2024/01/07 01:21:56;;;;;;;17.67;11.80;;;;;2.90;101149.00;;;;9832108;29;20822;-82
2024/01/07 01:26:57;;;;;;;16.67;12.53;;;;;2.90;101162.00;;;;9830137;29;20267;-82
2024/01/07 01:31:58;;;;;;;16.27;13.67;;;;;2.90;101169.00;;;;9827793;29;20706;-81
2024/01/07 01:36:59;;;;;;;18.57;13.53;;;;;2.90;101167.00;;;;9838649;29;20232;-81
2024/01/07 01:42:01;;;;;;;16.87;12.37;;;;;2.80;101181.00;;;;9834580;29;20595;-82
2024/01/07 01:47:02;;;;;;;14.47;10.90;;;;;2.70;101190.00;;;;9827193;29;20248;-82
2024/01/07 01:52:05;;;;;;;15.80;12.17;;;;;2.60;101198.00;;;;9799585;29;20243;-82
2024/01/07 01:57:08;;;;;;;14.30;10.97;;;;;2.50;101187.00;;;;9815112;30;20278;-82
2024/01/07 02:02:10;;;;;;;17.10;12.10;;;;;2.40;101194.00;;;;9818333;29;20236;-82
2024/01/07 02:07:11;;;;;;;16.63;11.83;;;;;2.40;101193.00;;;;9836514;29;20281;-82
2024/01/07 02:12:14;;;;;;;16.73;12.10;;;;;2.30;101207.00;;;;9830362;29;20255;-81
2024/01/07 02:17:16;;;;;;;14.23;11.87;;;;;2.30;101205.00;;;;9833472;29;20311;-82
2024/01/07 02:22:18;;;;;;;15.67;11.53;;;;;2.30;101208.00;;;;9833895;29;20905;-82
2024/01/07 02:27:20;;;;;;;15.43;11.50;;;;;2.30;101210.00;;;;9804836;29;20962;-82
2024/01/07 02:32:21;;;;;;;18.03;14.30;;;;;2.20;101218.00;;;;9813166;29;20247;-81
2024/01/07 02:37:22;;;;;;;19.07;13.00;;;;;2.20;101221.00;;;;9815462;29;20298;-81
2024/01/07 02:42:23;;;;;;;20.10;14.47;;;;;2.20;101228.00;;;;9815033;29;20810;-81
2024/01/07 02:47:25;;;;;;;22.53;14.13;;;;;2.10;101223.00;;;;9844399;29;20917;-82
2024/01/07 02:52:27;;;;;;;20.57;14.03;;;;;2.10;101227.00;;;;9831051;29;20243;-81
2024/01/07 02:57:28;;;;;;;24.33;16.07;;;;;2.10;101233.00;;;;9829812;29;20240;-82
2024/01/07 03:02:29;;;;;;;24.83;16.33;;;;;2.10;101234.00;;;;9817771;30;20601;-82
2024/01/07 03:07:30;;;;;;;23.63;16.57;;;;;2.10;101236.00;;;;9843254;30;20240;-81
2024/01/07 03:12:31;;;;;;;27.90;17.20;;;;;2.10;101241.00;;;;9834450;29;20306;-81
2024/01/07 03:17:33;;;;;;;23.80;17.00;;;;;2.10;101250.00;;;;9815407;29;20232;-81
2024/01/07 03:22:34;;;;;;;27.97;17.13;;;;;2.10;101250.00;;;;9816768;29;20236;-81
2024/01/07 03:27:35;;;;;;;32.77;19.40;;;;;2.10;101258.00;;;;9814327;29;20595;-81
2024/01/07 03:32:36;;;;;;;35.70;21.37;;;;;2.10;101260.00;;;;9817485;29;20228;-82
2024/01/07 03:37:38;;;;;;;36.47;22.47;;;;;2.00;101265.00;;;;9830235;29;20574;-82
2024/01/07 03:42:39;;;;;;;37.80;23.63;;;;;2.00;101260.00;;;;9819027;29;20232;-82
2024/01/07 03:47:40;;;;;;;38.03;24.73;;;;;2.00;101272.00;;;;9824978;29;20826;-82
2024/01/07 03:52:42;;;;;;;41.67;25.80;;;;;2.00;101271.00;;;;9817739;29;20228;-82
2024/01/07 03:57:43;;;;;;;43.13;25.50;;;;;2.00;101275.00;;;;9827600;29;20790;-82
2024/01/07 04:02:44;;;;;;;44.57;27.60;;;;;2.00;101280.00;;;;9799628;29;20236;-82
2024/01/07 04:07:45;;;;;;;38.73;23.83;;;;;2.00;101283.00;;;;9839092;29;20264;-83
2024/01/07 04:12:47;;;;;;;37.60;25.07;;;;;2.00;101292.00;;;;9824195;29;20750;-83
2024/01/07 04:17:48;;;;;;;38.33;23.73;;;;;2.00;101289.00;;;;9838731;29;20236;-82
2024/01/07 04:22:49;;;;;;;42.40;25.07;;;;;2.00;101296.00;;;;9810827;29;20242;-83
2024/01/07 04:27:51;;;;;;;40.57;24.27;;;;;2.00;101299.00;;;;9820213;29;20892;-82
2024/01/07 04:32:52;;;;;;;35.57;22.70;;;;;2.00;101294.00;;;;9819387;29;20236;-82
2024/01/07 04:37:53;;;;;;;32.53;21.00;;;;;2.00;101303.00;;;;9849787;29;20711;-82
2024/01/07 04:42:54;;;;;;;36.67;22.07;;;;;1.90;101310.00;;;;9824800;29;20229;-81
2024/01/07 04:47:56;;;;;;;37.27;21.90;;;;;1.80;101306.00;;;;9854171;29;20239;-82
2024/01/07 04:52:57;;;;;;;31.93;20.40;;;;;1.80;101307.00;;;;9821348;29;20967;-82
2024/01/07 04:57:58;;;;;;;37.93;24.17;;;;;1.80;101311.00;;;;9831383;29;20236;-82
2024/01/07 05:02:59;;;;;;;40.23;25.70;;;;;1.80;101302.00;;;;9819768;29;20236;-82
2024/01/07 05:08:01;;;;;;;37.90;23.07;;;;;1.80;101309.00;;;;9828116;29;20235;-82
2024/01/07 05:13:05;;;;;;;36.40;22.83;;;;;1.80;101315.00;;;;9817884;29;20266;-83
2024/01/07 05:18:09;;;;;;;37.20;23.97;;;;;1.80;101318.00;;;;9831816;29;20236;-83
2024/01/07 05:23:10;;;;;;;36.70;22.83;;;;;1.80;101325.00;;;;9820594;29;20224;-83
2024/01/07 05:28:12;;;;;;;42.87;25.67;;;;;1.80;101327.00;;;;9846943;29;20908;-84
2024/01/07 05:33:13;;;;;;;35.63;22.17;;;;;1.80;101348.00;;;;9815432;29;20252;-83
2024/01/07 05:38:14;;;;;;;41.13;23.70;;;;;1.80;101362.00;;;;9798149;29;20684;-83
2024/01/07 05:43:15;;;;;;;41.87;26.17;;;;;1.70;101361.00;;;;9818279;29;20279;-83
2024/01/07 05:48:17;;;;;;;44.50;26.63;;;;;1.70;101374.00;;;;9846020;29;20323;-83
2024/01/07 05:53:18;;;;;;;41.30;24.57;;;;;1.80;101379.00;;;;9819299;30;20252;-84
2024/01/07 05:58:19;;;;;;;43.83;25.00;;;;;1.80;101377.00;;;;9829673;29;20266;-83
2024/01/07 06:03:21;;;;;;;43.90;25.07;;;;;1.80;101388.00;;;;9827877;29;20315;-83
2024/01/07 06:08:22;;;;;;;42.40;24.70;;;;;1.80;101388.00;;;;9860603;29;20224;-83
2024/01/07 06:13:23;;;;;;;40.40;23.10;;;;;1.80;101397.00;;;;9816563;29;20272;-83
2024/01/07 06:18:24;;;;;;;42.57;23.50;;;;;1.80;101403.00;;;;9817892;30;20220;-83
2024/01/07 06:23:26;;;;;;;44.47;24.53;;;;;1.80;101404.00;;;;9821120;29;20228;-79
2024/01/07 06:28:27;;;;;;;41.10;23.00;;;;;1.80;101413.00;;;;9828097;29;21053;-79
2024/01/07 06:33:28;;;;;;;45.47;24.50;;;;;1.80;101415.00;;;;9800387;29;20247;-81
2024/01/07 06:38:29;;;;;;;41.53;23.43;;;;;1.80;101435.00;;;;9810331;29;20327;-80
2024/01/07 06:43:32;;;;;;;37.97;22.10;;;;;1.80;101440.00;;;;9840996;29;20228;-80
2024/01/07 06:48:33;;;;;;;46.00;23.23;;;;;1.90;101447.00;;;;9817119;29;20676;-80
2024/01/07 06:53:35;;;;;;;44.00;25.53;;;;;1.80;101454.00;;;;9815757;29;20872;-79
2024/01/07 06:58:36;;;;;;;42.50;23.33;;;;;1.80;101464.00;;;;9816704;29;20410;-81
2024/01/07 07:03:37;;;;;;;46.80;25.10;;;;;1.80;101469.00;;;;9827672;29;20336;-81
2024/01/07 07:08:38;;;;;;;55.57;26.83;;;;;1.80;101474.00;;;;9821326;29;20232;-80
2024/01/07 07:13:40;;;;;;;51.33;26.17;;;;;1.80;101484.00;;;;9830964;29;20224;-79
2024/01/07 07:18:41;;;;;;;49.70;26.30;;;;;1.80;101491.00;;;;9810682;29;20305;-80
2024/01/07 07:23:42;;;;;;;54.23;26.97;;;;;1.80;101492.00;;;;9842770;29;20775;-80
2024/01/07 07:28:43;;;;;;;53.70;28.67;;;;;1.80;101501.00;;;;9843370;29;20304;-80
2024/01/07 07:33:44;;;;;;;59.43;29.27;;;;;1.80;101500.00;;;;9845059;29;20245;-85
2024/01/07 07:38:46;;;;;;;59.73;28.03;;;;;1.80;101513.00;;;;9821840;29;20323;-85
2024/01/07 07:43:47;;;;;;;55.17;27.77;;;;;1.80;101522.00;;;;9815474;29;20290;-84
2024/01/07 07:48:48;;;;;;;53.83;28.30;;;;;1.80;101520.00;;;;9816561;29;20323;-85
2024/01/07 07:53:49;;;;;;;51.90;27.10;;;;;1.80;101532.00;;;;9831995;29;20239;-84
2024/01/07 07:58:50;;;;;;;51.73;27.47;;;;;1.80;101542.00;;;;9814021;29;20270;-85
2024/01/07 08:03:52;;;;;;;47.90;25.33;;;;;1.80;101543.00;;;;9818976;30;20240;-86
2024/01/07 08:08:53;;;;;;;46.83;24.73;;;;;1.80;101547.00;;;;9819116;29;20244;-85
2024/01/07 08:13:54;;;;;;;43.27;23.30;;;;;1.80;101558.00;;;;9832851;29;20236;-84
2024/01/07 08:18:56;;;;;;;52.07;24.67;;;;;1.80;101570.00;;;;9800606;29;20223;-86
2024/01/07 08:23:58;;;;;;;40.60;22.77;;;;;1.80;101563.00;;;;9798444;30;20239;-85
2024/01/07 08:29:00;;;;;;;43.90;22.80;;;;;1.80;101570.00;;;;9847830;29;20236;-85
2024/01/07 08:34:01;;;;;;;36.40;21.60;;;;;1.80;101577.00;;;;9828303;29;20227;-85
2024/01/07 08:39:03;;;;;;;38.80;20.17;;;;;1.80;101581.00;;;;9817962;29;20224;-85
2024/01/07 08:44:04;;;;;;;35.07;19.57;;;;;1.70;101591.00;;;;9816239;29;20324;-81
2024/01/07 08:49:05;;;;;;;33.07;19.43;;;;;1.60;101593.00;;;;9820493;29;20232;-81
2024/01/07 08:54:07;;;;;;;32.20;19.97;;;;;1.60;101598.00;;;;9832340;29;20236;-81
2024/01/07 08:59:08;;;;;;;33.17;19.47;;;;;1.60;101605.00;;;;9813668;29;20297;-81
2024/01/07 09:04:09;;;;;;;34.57;21.63;;;;;1.60;101623.00;;;;9812240;29;20919;-79
2024/01/07 09:09:10;;;;;;;32.13;21.00;;;;;1.60;101622.00;;;;9819521;29;20243;-80
2024/01/07 09:14:11;;;;;;;37.00;21.90;;;;;1.60;101626.00;;;;9816412;29;20255;-80
2024/01/07 09:19:13;;;;;;;33.73;21.07;;;;;1.60;101632.00;;;;9847579;29;20269;-81
2024/01/07 09:24:16;;;;;;;34.87;21.93;;;;;1.60;101638.00;;;;9828693;29;20254;-81
2024/01/07 09:29:17;;;;;;;32.10;20.13;;;;;1.60;101650.00;;;;9802026;29;20373;-80
2024/01/07 09:34:19;;;;;;;31.37;20.23;;;;;1.60;101651.00;;;;9815867;29;20247;-81
2024/01/07 09:39:20;;;;;;;33.30;22.07;;;;;1.60;101676.00;;;;9835577;29;20815;-80
2024/01/07 09:44:22;;;;;;;32.70;21.20;;;;;1.70;101675.00;;;;9827928;29;20228;-80
2024/01/07 09:49:23;;;;;;;30.37;20.87;;;;;1.70;101676.00;;;;9826854;29;20243;-79
2024/01/07 09:54:48;;;;;;;32.10;20.93;;;;;1.70;101688.00;;;;10441823;24;20231;31
2024/01/07 09:59:50;;;;;;;33.53;21.97;;;;;1.60;101682.00;;;;10018454;24;20247;-84
2024/01/07 10:04:51;;;;;;;38.73;22.43;;;;;1.70;101685.00;;;;10305052;24;20238;-83
2024/01/07 10:09:55;;;;;;;32.23;21.87;;;;;1.70;101696.00;;;;6974697;24;20440;-81
2024/01/07 10:21:06;;;;;;;34.80;22.10;;;;;1.70;101703.00;;;;10572362;24;21565;-85
2024/01/07 10:26:11;;;;;;;36.67;24.80;;;;;1.70;101704.00;;;;10774934;24;20215;31
2024/01/07 10:32:10;;;;;;;38.00;23.47;;;;;1.60;101709.00;;;;10343588;24;20226;31
2024/01/07 10:37:12;;;;;;;37.00;23.57;;;;;1.70;101713.00;;;;10676132;24;20255;-84
2024/01/07 10:42:18;;;;;;;36.63;22.40;;;;;1.70;101709.00;;;;10084231;24;20281;-88
2024/01/07 10:53:34;;;;;;;33.17;22.17;;;;;1.60;101706.00;;;;10019965;24;20333;31
2024/01/07 10:58:37;;;;;;;28.37;19.00;;;;;1.60;101713.00;;;;10431436;24;20212;-83
2024/01/07 11:03:38;;;;;;;29.83;19.77;;;;;1.60;101722.00;;;;9873420;29;20317;-85
2024/01/07 11:08:54;;;;;;;29.47;17.57;;;;;1.60;101720.00;;;;9867034;29;20227;-85
2024/01/07 11:13:55;;;;;;;26.20;16.67;;;;;1.70;101723.00;;;;9885632;29;20238;-85
2024/01/07 11:19:02;;;;;;;28.43;18.77;;;;;1.70;101738.00;;;;9849936;29;20227;-83
2024/01/07 11:24:04;;;;;;;29.30;17.57;;;;;1.70;101730.00;;;;9867859;29;20235;-85
2024/01/07 11:29:08;;;;;;;29.00;18.17;;;;;1.70;101727.00;;;;9865548;29;20368;-84
2024/01/07 11:34:10;;;;;;;27.47;17.47;;;;;1.70;101720.00;;;;9884008;29;20318;-84
2024/01/07 11:39:12;;;;;;;24.97;16.20;;;;;1.80;101721.00;;;;9844951;29;20239;-84
2024/01/07 11:44:14;;;;;;;27.00;17.20;;;;;1.70;101734.00;;;;9854138;29;20257;-84
2024/01/07 11:49:15;;;;;;;26.47;17.00;;;;;1.70;101724.00;;;;9865823;29;20242;-84
2024/01/07 11:54:17;;;;;;;23.63;16.47;;;;;1.80;101728.00;;;;9871166;29;20235;-84
2024/01/07 11:59:18;;;;;;;28.93;16.67;;;;;1.80;101721.00;;;;9876118;29;20318;-84
2024/01/07 12:04:20;;;;;;;22.33;14.40;;;;;1.80;101730.00;;;;9852476;29;20306;-86
2024/01/07 12:09:22;;;;;;;25.57;17.00;;;;;1.80;101735.00;;;;9863420;29;20242;-84
2024/01/07 12:14:26;;;;;;;22.20;15.53;;;;;1.70;101739.00;;;;9865955;29;20258;-80
2024/01/07 12:19:28;;;;;;;23.07;15.37;;;;;1.70;101728.00;;;;9874832;29;20693;-83
2024/01/07 12:24:30;;;;;;;26.87;15.57;;;;;1.70;101729.00;;;;9879838;29;20239;-79
2024/01/07 12:29:31;;;;;;;27.03;16.53;;;;;1.70;101739.00;;;;9866943;29;20231;-82
2024/01/07 12:34:32;;;;;;;22.97;14.70;;;;;1.70;101731.00;;;;9846532;29;20263;-81
2024/01/07 12:39:34;;;;;;;21.57;13.67;;;;;1.70;101728.00;;;;9867524;29;20227;-80
2024/01/07 12:44:38;;;;;;;23.70;14.40;;;;;1.60;101740.00;;;;9891170;29;20261;-80
2024/01/07 12:49:39;;;;;;;19.70;14.93;;;;;1.60;101731.00;;;;9874906;29;20227;-79
2024/01/07 12:54:40;;;;;;;19.37;13.90;;;;;1.50;101734.00;;;;9868310;29;20910;-79
2024/01/07 12:59:41;;;;;;;23.57;14.73;;;;;1.50;101741.00;;;;9862666;29;20330;-79
2024/01/07 13:04:43;;;;;;;26.30;16.73;;;;;1.60;101741.00;;;;9879040;29;20298;-83
2024/01/07 13:09:44;;;;;;;20.07;14.63;;;;;1.60;101756.00;;;;9882670;29;20285;-80
2024/01/07 13:14:46;;;;;;;20.73;14.40;;;;;1.50;101759.00;;;;9853192;29;20745;-79
2024/01/07 13:19:48;;;;;;;19.47;14.27;;;;;1.40;101764.00;;;;9859748;29;20326;-86
2024/01/07 13:24:50;;;;;;;18.00;14.53;;;;;1.40;101768.00;;;;9887756;29;20223;-86
2024/01/07 13:29:51;;;;;;;19.87;14.13;;;;;1.30;101770.00;;;;9935535;24;20235;-91
2024/01/07 13:34:52;;;;;;;19.83;14.73;;;;;1.30;101768.00;;;;9959375;24;20251;-84
2024/01/07 13:39:54;;;;;;;18.43;13.80;;;;;1.30;101770.00;;;;9849003;29;20251;-88
2024/01/07 13:44:55;;;;;;;15.03;12.33;;;;;1.40;101788.00;;;;9959809;24;20236;-89
2024/01/07 13:49:57;;;;;;;17.20;13.17;;;;;1.50;101785.00;;;;9848966;29;20288;-86
2024/01/07 13:54:58;;;;;;;17.73;13.50;;;;;1.50;101791.00;;;;9851957;29;20707;-87
2024/01/07 13:59:59;;;;;;;18.37;14.47;;;;;1.50;101801.00;;;;9845650;29;20231;-86
2024/01/07 14:05:01;;;;;;;20.77;13.13;;;;;1.40;101804.00;;;;9847875;30;20261;-87
2024/01/07 14:10:03;;;;;;;18.53;13.03;;;;;1.40;101806.00;;;;9834685;30;20232;-88
2024/01/07 14:15:05;;;;;;;15.87;13.20;;;;;1.30;101810.00;;;;9844753;29;20243;-87
2024/01/07 14:20:07;;;;;;;19.33;14.67;;;;;1.20;101809.00;;;;9857434;29;20235;-89
2024/01/07 14:25:09;;;;;;;15.87;12.17;;;;;1.20;101823.00;;;;9824315;30;20299;-88
2024/01/07 14:30:10;;;;;;;19.43;14.03;;;;;1.20;101825.00;;;;9852374;30;20275;-84
2024/01/07 14:35:30;;;;;;;18.60;14.43;;;;;1.20;101830.00;;;;10164588;24;20274;31
2024/01/07 14:46:20;;;;;;;19.90;14.87;;;;;1.20;101846.00;;;;10365334;24;20286;-85
2024/01/07 14:51:22;;;;;;;22.40;15.30;;;;;1.20;101863.00;;;;9910215;29;20242;-85
2024/01/07 14:56:23;;;;;;;19.90;14.93;;;;;1.20;101861.00;;;;10147743;24;20292;-84
2024/01/07 15:01:24;;;;;;;17.00;14.10;;;;;1.20;101870.00;;;;9847440;29;20232;-85
2024/01/07 15:06:29;;;;;;;19.73;14.37;;;;;1.20;101875.00;;;;9877085;29;20602;-84
2024/01/07 15:11:30;;;;;;;19.63;13.07;;;;;1.10;101884.00;;;;10031239;24;20262;-85
2024/01/07 15:16:31;;;;;;;19.23;14.17;;;;;1.10;101887.00;;;;9973360;24;20238;-84
2024/01/07 15:21:32;;;;;;;19.77;13.37;;;;;1.00;101890.00;;;;9990032;24;20267;-86
2024/01/07 15:26:35;;;;;;;16.50;13.07;;;;;0.90;101910.00;;;;9870925;24;20242;-85
2024/01/07 15:31:36;;;;;;;16.37;13.37;;;;;0.80;101912.00;;;;9858604;29;20224;-85
2024/01/07 15:36:40;;;;;;;15.87;13.07;;;;;0.80;101921.00;;;;9880644;29;20232;-85
2024/01/07 15:41:41;;;;;;;16.43;12.80;;;;;0.70;101927.00;;;;9867912;29;20255;-82
2024/01/07 15:46:42;;;;;;;15.30;11.60;;;;;0.70;101945.00;;;;9829225;29;20238;-80
2024/01/07 15:51:44;;;;;;;17.87;12.77;;;;;0.70;101950.00;;;;9845805;29;20718;-81
2024/01/07 15:56:45;;;;;;;16.77;12.30;;;;;0.70;101950.00;;;;9848471;29;20909;-80
2024/01/07 16:01:47;;;;;;;14.97;12.00;;;;;0.70;101957.00;;;;9837441;29;20692;-81
2024/01/07 16:06:49;;;;;;;17.63;13.10;;;;;0.70;101971.00;;;;9832239;29;20711;-80
2024/01/07 16:11:51;;;;;;;14.67;12.57;;;;;0.70;101978.00;;;;9851246;29;20329;-81
2024/01/07 16:16:52;;;;;;;10.97;8.83;;;;;0.70;101991.00;;;;9844628;29;20240;-81
2024/01/07 16:21:54;;;;;;;7.47;6.37;;;;;0.60;101997.00;;;;9836040;29;20227;-81
2024/01/07 16:26:55;;;;;;;6.70;5.87;;;;;0.50;102003.00;;;;9869140;29;20306;-81
2024/01/07 16:31:56;;;;;;;6.17;5.27;;;;;0.40;102011.00;;;;9837422;29;20235;-80
2024/01/07 16:36:58;;;;;;;7.13;5.10;;;;;0.30;102023.00;;;;9832485;29;20906;-82
2024/01/07 16:41:59;;;;;;;4.80;4.30;;;;;0.20;102039.00;;;;9847511;29;20231;-80
2024/01/07 16:47:01;;;;;;;6.00;4.40;;;;;0.10;102034.00;;;;9831385;29;20240;-81
2024/01/07 16:52:02;;;;;;;7.93;4.57;;;;;0.00;102045.00;;;;9862359;29;20262;-84
2024/01/07 16:57:04;;;;;;;4.27;3.80;;;;;-0.10;102048.00;;;;9851401;29;20243;-86
2024/01/07 17:02:08;;;;;;;4.90;3.93;;;;;-0.10;102067.00;;;;9818394;29;20239;-84
2024/01/07 17:07:09;;;;;;;5.50;4.53;;;;;-0.10;102065.00;;;;9815313;29;20232;-84
2024/01/07 17:12:11;;;;;;;6.67;5.13;;;;;-0.10;102078.00;;;;9820587;29;20259;-85
2024/01/07 17:17:12;;;;;;;4.53;4.03;;;;;0.00;102083.00;;;;9815500;29;20319;-85
2024/01/07 17:22:14;;;;;;;5.57;4.73;;;;;0.00;102078.00;;;;9816757;29;20242;-85
2024/01/07 17:27:16;;;;;;;4.83;4.30;;;;;0.00;102092.00;;;;9821491;29;20242;-85
2024/01/07 17:32:22;;;;;;;5.53;4.60;;;;;-0.10;102088.00;;;;9814283;29;20235;-83
2024/01/07 17:37:25;;;;;;;7.80;5.10;;;;;-0.10;102100.00;;;;9809834;29;20248;-85
2024/01/07 17:42:27;;;;;;;5.13;4.53;;;;;-0.20;102108.00;;;;9806878;29;20224;-85
2024/01/07 17:47:28;;;;;;;5.73;4.57;;;;;-0.20;102112.00;;;;9820683;29;20236;-85
2024/01/07 17:52:29;;;;;;;6.87;5.07;;;;;-0.30;102121.00;;;;9815619;30;20787;-85
2024/01/07 17:57:32;;;;;;;6.10;4.60;;;;;-0.30;102118.00;;;;9818099;29;20244;-85
2024/01/07 18:02:34;;;;;;;5.60;4.40;;;;;-0.40;102132.00;;;;9814877;29;20270;-83
2024/01/07 18:07:36;;;;;;;6.13;4.80;;;;;-0.40;102132.00;;;;9815529;29;20236;-84
2024/01/07 18:12:37;;;;;;;5.17;4.20;;;;;-0.40;102137.00;;;;9814971;30;20256;-84
2024/01/07 18:17:42;;;;;;;4.10;3.70;;;;;-0.40;102145.00;;;;9813867;29;20319;-84
2024/01/07 18:22:43;;;;;;;3.77;3.33;;;;;-0.50;102146.00;;;;9799607;29;20251;-82
2024/01/07 18:27:44;;;;;;;3.60;3.23;;;;;-0.50;102142.00;;;;9813877;29;20294;-82
2024/01/07 18:32:46;;;;;;;5.60;3.63;;;;;-0.60;102155.00;;;;9820992;29;20243;-83
2024/01/07 18:37:49;;;;;;;4.67;3.40;;;;;-0.60;102161.00;;;;9829924;29;20228;-82
2024/01/07 18:42:51;;;;;;;7.93;4.50;;;;;-0.70;102173.00;;;;9813442;29;20273;-84
2024/01/07 18:47:52;;;;;;;7.07;4.67;;;;;-0.70;102178.00;;;;9798203;29;20302;-82
2024/01/07 18:52:54;;;;;;;5.07;4.10;;;;;-0.80;102192.00;;;;9825313;29;20239;-83
2024/01/07 18:57:55;;;;;;;5.80;3.80;;;;;-0.70;102190.00;;;;9801705;29;20251;-81
2024/01/07 19:02:56;;;;;;;8.87;5.43;;;;;-0.80;102186.00;;;;9814087;29;20296;-80
2024/01/07 19:07:58;;;;;;;6.30;4.37;;;;;-0.80;102192.00;;;;9831723;29;20318;-84
2024/01/07 19:12:59;;;;;;;5.57;3.40;;;;;-0.90;102204.00;;;;9826714;29;20235;-87
2024/01/07 19:18:02;;;;;;;5.10;3.43;;;;;-1.00;102199.00;;;;9818079;30;20228;-88
2024/01/07 19:23:06;;;;;;;5.27;4.07;;;;;-1.10;102205.00;;;;9818474;29;20611;-90
2024/01/07 19:28:07;;;;;;;5.73;4.13;;;;;-1.20;102211.00;;;;9832937;29;20240;-88
2024/01/07 19:33:08;;;;;;;8.33;3.90;;;;;-1.20;102218.00;;;;9819941;29;20236;-88
2024/01/07 19:38:12;;;;;;;5.10;4.20;;;;;-1.30;102226.00;;;;9797288;30;20235;-85
2024/01/07 19:43:15;;;;;;;5.23;3.47;;;;;-1.30;102219.00;;;;9820617;29;20236;-87
2024/01/07 19:48:16;;;;;;;4.37;3.67;;;;;-1.30;102228.00;;;;9823447;29;20305;-88
2024/01/07 19:53:18;;;;;;;5.67;4.07;;;;;-1.40;102217.00;;;;9816666;29;20244;-90
2024/01/07 19:58:31;;;;;;;5.80;4.70;;;;;-1.40;102218.00;;;;9818910;29;20395;-87
2024/01/07 20:03:32;;;;;;;4.97;4.10;;;;;-1.40;102223.00;;;;9861036;29;20239;-85
2024/01/07 20:08:33;;;;;;;4.57;3.87;;;;;-1.40;102229.00;;;;9832400;29;20917;-87
2024/01/07 20:13:36;;;;;;;6.07;3.80;;;;;-1.40;102228.00;;;;9821220;29;20764;-86
2024/01/07 20:18:38;;;;;;;6.43;3.50;;;;;-1.40;102235.00;;;;9833036;29;20228;-86
2024/01/07 20:23:40;;;;;;;7.37;3.83;;;;;-1.40;102241.00;;;;9814464;29;20243;-86
2024/01/07 20:28:41;;;;;;;4.87;3.70;;;;;-1.40;102246.00;;;;9822660;29;20530;-86
2024/01/07 20:33:46;;;;;;;5.63;3.80;;;;;-1.40;102258.00;;;;9834216;29;20235;-86
2024/01/07 20:38:47;;;;;;;5.13;3.90;;;;;-1.50;102243.00;;;;9839056;29;20242;-85
2024/01/07 20:43:49;;;;;;;10.13;4.93;;;;;-1.50;102250.00;;;;9824937;29;20240;-85
2024/01/07 20:48:51;;;;;;;8.80;5.60;;;;;-1.60;102262.00;;;;9807778;29;20323;-84
2024/01/07 20:53:52;;;;;;;5.90;4.50;;;;;-1.60;102259.00;;;;9799230;30;20291;-85
2024/01/07 20:58:53;;;;;;;5.90;4.40;;;;;-1.60;102269.00;;;;9815175;29;20661;-84
2024/01/07 21:03:55;;;;;;;6.07;4.00;;;;;-1.60;102267.00;;;;9848423;29;20293;-85
2024/01/07 21:08:59;;;;;;;6.87;4.10;;;;;-1.60;102259.00;;;;9824509;29;20255;-85
2024/01/07 21:14:01;;;;;;;8.00;5.13;;;;;-1.60;102267.00;;;;9810413;30;20232;-84
2024/01/07 21:19:02;;;;;;;6.63;4.67;;;;;-1.70;102253.00;;;;9813279;29;20235;-85
2024/01/07 21:24:04;;;;;;;9.07;5.33;;;;;-1.70;102260.00;;;;9811604;30;20243;-84
2024/01/07 21:29:05;;;;;;;7.77;5.37;;;;;-1.70;102260.00;;;;9810007;29;20232;-84
2024/01/07 21:34:06;;;;;;;8.83;4.83;;;;;-1.70;102253.00;;;;9799699;30;20293;-79
2024/01/07 21:39:08;;;;;;;8.43;5.20;;;;;-1.80;102262.00;;;;9812741;29;20242;-81
2024/01/07 21:44:10;;;;;;;10.37;5.93;;;;;-1.80;102264.00;;;;9814467;29;20229;-81
2024/01/07 21:49:14;;;;;;;10.57;6.03;;;;;-1.80;102261.00;;;;9802507;29;20248;-80
2024/01/07 21:54:15;;;;;;;7.90;6.03;;;;;-1.80;102256.00;;;;9803092;29;20228;-79
2024/01/07 21:59:16;;;;;;;9.90;6.67;;;;;-1.90;102258.00;;;;9833050;29;20258;-79
2024/01/07 22:04:17;;;;;;;8.63;5.83;;;;;-1.90;102265.00;;;;9820643;29;20243;-80
2024/01/07 22:09:19;;;;;;;17.03;7.20;;;;;-1.90;102266.00;;;;9822176;29;20652;-82
2024/01/07 22:14:20;;;;;;;11.93;7.13;;;;;-2.00;102263.00;;;;9829050;29;20244;-78
2024/01/07 22:19:21;;;;;;;10.83;7.00;;;;;-1.90;102250.00;;;;9834039;29;20298;-79
2024/01/07 22:24:23;;;;;;;10.80;6.87;;;;;-1.90;102258.00;;;;9813393;30;20311;-79
2024/01/07 22:29:24;;;;;;;9.10;5.90;;;;;-1.90;102261.00;;;;9815445;29;20268;-82
2024/01/07 22:34:25;;;;;;;10.33;7.80;;;;;-1.90;102265.00;;;;9816508;29;20289;-79
2024/01/07 22:39:27;;;;;;;13.00;7.87;;;;;-2.00;102271.00;;;;9818431;29;20232;-85
2024/01/07 22:44:29;;;;;;;11.33;7.37;;;;;-2.00;102275.00;;;;9815193;29;20866;-81
2024/01/07 22:49:30;;;;;;;14.60;7.87;;;;;-2.10;102285.00;;;;9829159;29;20271;-81
2024/01/07 22:54:33;;;;;;;11.73;8.37;;;;;-2.10;102283.00;;;;9813257;29;20836;-83
2024/01/07 22:59:34;;;;;;;12.83;7.53;;;;;-2.10;102282.00;;;;9813830;29;20288;-81
2024/01/07 23:04:36;;;;;;;23.73;9.17;;;;;-2.10;102293.00;;;;9810006;30;20243;-82
2024/01/07 23:09:37;;;;;;;13.83;8.37;;;;;-2.10;102292.00;;;;9813376;29;20819;-81
2024/01/07 23:14:38;;;;;;;15.27;9.43;;;;;-2.10;102284.00;;;;9826488;29;20239;-83
2024/01/07 23:19:39;;;;;;;12.07;8.87;;;;;-2.20;102293.00;;;;9814853;29;20239;-81
2024/01/07 23:24:41;;;;;;;13.40;9.40;;;;;-2.10;102290.00;;;;9823925;30;20703;-82
2024/01/07 23:29:42;;;;;;;14.40;9.70;;;;;-2.20;102296.00;;;;9805952;29;20236;-81
2024/01/07 23:34:43;;;;;;;16.63;8.97;;;;;-2.20;102293.00;;;;9812964;29;20243;-82
2024/01/07 23:39:45;;;;;;;15.57;9.47;;;;;-2.10;102296.00;;;;9808964;29;20243;-81
2024/01/07 23:44:46;;;;;;;14.27;10.00;;;;;-2.00;102298.00;;;;9808428;29;20235;-82
2024/01/07 23:49:47;;;;;;;19.90;10.93;;;;;-2.00;102293.00;;;;9812172;30;20228;-87
2024/01/07 23:54:49;;;;;;;18.87;10.33;;;;;-2.00;102295.00;;;;9837698;30;20255;-88
2024/01/07 23:59:50;;;;;;;17.23;11.00;;;;;-1.90;102291.00;;;;9820290;29;20270;-86
